Cataratas del Iguazu, Argentina
Current Conditions -  °F | °C
As of 1:00 AM on Sunday 21 Dec 2014 (Local Time) from SARI Reporting Station
Few Clouds Few Clouds  
Wind Chill: 79°   Ceiling: Unl
Heat Index: 82°   Visibility: 6mi
Dew Point: 73°   Wind: 8mph
Humidity: 83%   Direction: 50°NE
Pressure: 29.68"   Gusts: NA
Location:  25.67°S, 54.45°W
Report Text: SARI 210400Z 05007KT 9999 FEW030 FEW050CB26/23 Q1005
Loading
Personal Weather Stations






























Interactive Weather Map New forecast layout! Learn more

10-Day Weather Forecast

Advertisements
Track Severe Weather on mobile